sensor_id;sensor_type;location;lat;lon;timestamp;temperature;humidity
25918;DHT22;13899;51.174;4.456;2023-03-15T00:02:06;3.60;99.90
25918;DHT22;13899;51.174;4.456;2023-03-15T00:04:32;3.60;99.90
25918;DHT22;13899;51.174;4.456;2023-03-15T00:07:01;3.50;99.90
25918;DHT22;13899;51.174;4.456;2023-03-15T00:09:27;3.40;99.90
25918;DHT22;13899;51.174;4.456;2023-03-15T00:11:53;3.50;99.90
25918;DHT22;13899;51.174;4.456;2023-03-15T00:14:21;3.60;99.90
25918;DHT22;13899;51.174;4.456;2023-03-15T00:16:48;3.40;99.90
25918;DHT22;13899;51.174;4.456;2023-03-15T00:19:14;3.40;99.90
25918;DHT22;13899;51.174;4.456;2023-03-15T00:21:40;3.40;99.90
25918;DHT22;13899;51.174;4.456;2023-03-15T00:24:10;3.50;99.90
25918;DHT22;13899;51.174;4.456;2023-03-15T00:26:37;3.50;99.90
25918;DHT22;13899;51.174;4.456;2023-03-15T00:29:03;3.80;99.90
25918;DHT22;13899;51.174;4.456;2023-03-15T00:31:28;3.90;99.90
25918;DHT22;13899;51.174;4.456;2023-03-15T00:33:54;3.90;99.90
25918;DHT22;13899;51.174;4.456;2023-03-15T00:36:21;4.00;99.90
25918;DHT22;13899;51.174;4.456;2023-03-15T00:38:49;4.00;99.90
25918;DHT22;13899;51.174;4.456;2023-03-15T00:41:19;4.10;99.90
25918;DHT22;13899;51.174;4.456;2023-03-15T00:43:49;4.10;99.90
25918;DHT22;13899;51.174;4.456;2023-03-15T00:46:16;4.40;99.90
25918;DHT22;13899;51.174;4.456;2023-03-15T00:48:44;4.40;99.90
25918;DHT22;13899;51.174;4.456;2023-03-15T00:51:14;4.00;99.90
25918;DHT22;13899;51.174;4.456;2023-03-15T00:53:42;4.20;99.90
25918;DHT22;13899;51.174;4.456;2023-03-15T00:56:17;4.10;99.90
25918;DHT22;13899;51.174;4.456;2023-03-15T00:58:43;4.20;99.90
25918;DHT22;13899;51.174;4.456;2023-03-15T01:01:21;4.50;99.90
25918;DHT22;13899;51.174;4.456;2023-03-15T01:04:10;4.40;99.90
25918;DHT22;13899;51.174;4.456;2023-03-15T01:06:40;4.10;99.90
25918;DHT22;13899;51.174;4.456;2023-03-15T01:09:08;3.80;99.90
25918;DHT22;13899;51.174;4.456;2023-03-15T01:11:35;3.80;99.90
25918;DHT22;13899;51.174;4.456;2023-03-15T01:14:05;3.70;99.90
25918;DHT22;13899;51.174;4.456;2023-03-15T01:16:35;3.60;99.90
25918;DHT22;13899;51.174;4.456;2023-03-15T01:19:01;3.70;99.90
25918;DHT22;13899;51.174;4.456;2023-03-15T01:21:27;3.40;99.90
25918;DHT22;13899;51.174;4.456;2023-03-15T01:23:54;3.40;99.90
25918;DHT22;13899;51.174;4.456;2023-03-15T01:26:20;3.30;99.90
25918;DHT22;13899;51.174;4.456;2023-03-15T01:28:50;3.20;99.90
25918;DHT22;13899;51.174;4.456;2023-03-15T01:31:19;3.10;99.90
25918;DHT22;13899;51.174;4.456;2023-03-15T01:33:48;3.10;99.90
25918;DHT22;13899;51.174;4.456;2023-03-15T01:36:14;3.20;99.90
25918;DHT22;13899;51.174;4.456;2023-03-15T01:38:40;3.10;99.90
25918;DHT22;13899;51.174;4.456;2023-03-15T01:41:06;3.10;99.90
25918;DHT22;13899;51.174;4.456;2023-03-15T01:43:32;3.30;99.90
25918;DHT22;13899;51.174;4.456;2023-03-15T01:46:02;3.30;99.90
25918;DHT22;13899;51.174;4.456;2023-03-15T01:54:09;3.10;99.90
25918;DHT22;13899;51.174;4.456;2023-03-15T01:56:41;3.10;99.90
25918;DHT22;13899;51.174;4.456;2023-03-15T01:59:13;3.20;99.90
25918;DHT22;13899;51.174;4.456;2023-03-15T02:01:41;3.20;99.90
25918;DHT22;13899;51.174;4.456;2023-03-15T02:04:14;3.40;99.90
25918;DHT22;13899;51.174;4.456;2023-03-15T02:06:41;3.30;99.90
25918;DHT22;13899;51.174;4.456;2023-03-15T02:09:13;3.50;99.90
25918;DHT22;13899;51.174;4.456;2023-03-15T02:11:40;3.60;99.90
25918;DHT22;13899;51.174;4.456;2023-03-15T02:14:07;4.00;99.90
25918;DHT22;13899;51.174;4.456;2023-03-15T02:16:35;4.20;99.90
25918;DHT22;13899;51.174;4.456;2023-03-15T02:19:01;4.40;99.90
25918;DHT22;13899;51.174;4.456;2023-03-15T02:21:57;4.90;99.90
25918;DHT22;13899;51.174;4.456;2023-03-15T02:27:39;5.60;99.90
25918;DHT22;13899;51.174;4.456;2023-03-15T02:30:06;5.30;99.90
25918;DHT22;13899;51.174;4.456;2023-03-15T02:32:32;5.50;99.90
25918;DHT22;13899;51.174;4.456;2023-03-15T02:34:58;5.30;99.90
25918;DHT22;13899;51.174;4.456;2023-03-15T02:37:25;5.50;99.90
25918;DHT22;13899;51.174;4.456;2023-03-15T02:39:50;6.00;99.90
25918;DHT22;13899;51.174;4.456;2023-03-15T02:42:16;6.30;99.90
25918;DHT22;13899;51.174;4.456;2023-03-15T02:44:45;6.30;99.90
25918;DHT22;13899;51.174;4.456;2023-03-15T02:47:26;6.50;99.90
25918;DHT22;13899;51.174;4.456;2023-03-15T02:49:55;6.00;99.90
25918;DHT22;13899;51.174;4.456;2023-03-15T02:52:21;5.20;99.90
25918;DHT22;13899;51.174;4.456;2023-03-15T02:54:48;4.80;99.90
25918;DHT22;13899;51.174;4.456;2023-03-15T02:57:15;4.90;99.90
25918;DHT22;13899;51.174;4.456;2023-03-15T02:59:41;5.00;99.90
25918;DHT22;13899;51.174;4.456;2023-03-15T03:02:07;5.30;99.90
25918;DHT22;13899;51.174;4.456;2023-03-15T03:04:36;5.20;99.90
25918;DHT22;13899;51.174;4.456;2023-03-15T03:07:02;5.20;99.90
25918;DHT22;13899;51.174;4.456;2023-03-15T03:09:28;5.40;99.90
25918;DHT22;13899;51.174;4.456;2023-03-15T03:11:53;4.90;99.90
25918;DHT22;13899;51.174;4.456;2023-03-15T03:14:19;4.60;99.90
25918;DHT22;13899;51.174;4.456;2023-03-15T03:16:48;4.60;99.90
25918;DHT22;13899;51.174;4.456;2023-03-15T03:19:14;4.50;99.90
25918;DHT22;13899;51.174;4.456;2023-03-15T03:21:40;4.50;99.90
25918;DHT22;13899;51.174;4.456;2023-03-15T03:24:09;4.70;99.90
25918;DHT22;13899;51.174;4.456;2023-03-15T03:26:35;4.60;99.90
25918;DHT22;13899;51.174;4.456;2023-03-15T03:29:02;4.90;99.90
25918;DHT22;13899;51.174;4.456;2023-03-15T03:31:30;5.20;99.90
25918;DHT22;13899;51.174;4.456;2023-03-15T03:33:58;5.60;99.90
25918;DHT22;13899;51.174;4.456;2023-03-15T03:36:24;5.60;99.90
25918;DHT22;13899;51.174;4.456;2023-03-15T03:38:50;5.30;99.90
25918;DHT22;13899;51.174;4.456;2023-03-15T03:41:16;5.20;99.90
25918;DHT22;13899;51.174;4.456;2023-03-15T03:43:42;4.80;99.90
25918;DHT22;13899;51.174;4.456;2023-03-15T03:46:07;4.60;99.90
25918;DHT22;13899;51.174;4.456;2023-03-15T03:48:33;4.70;99.90
25918;DHT22;13899;51.174;4.456;2023-03-15T03:50:59;5.00;99.90
25918;DHT22;13899;51.174;4.456;2023-03-15T03:53:25;5.20;99.90
25918;DHT22;13899;51.174;4.456;2023-03-15T03:55:52;5.20;99.90
25918;DHT22;13899;51.174;4.456;2023-03-15T03:58:19;5.60;99.90
25918;DHT22;13899;51.174;4.456;2023-03-15T04:00:45;5.80;99.90
25918;DHT22;13899;51.174;4.456;2023-03-15T04:03:10;6.00;99.90
25918;DHT22;13899;51.174;4.456;2023-03-15T04:05:36;5.80;99.90
25918;DHT22;13899;51.174;4.456;2023-03-15T04:08:02;5.70;99.90
25918;DHT22;13899;51.174;4.456;2023-03-15T04:10:27;5.80;99.90
25918;DHT22;13899;51.174;4.456;2023-03-15T04:12:57;6.00;99.90
25918;DHT22;13899;51.174;4.456;2023-03-15T04:15:23;6.30;99.90
25918;DHT22;13899;51.174;4.456;2023-03-15T04:17:50;6.50;99.90
25918;DHT22;13899;51.174;4.456;2023-03-15T04:20:21;6.50;99.90
25918;DHT22;13899;51.174;4.456;2023-03-15T04:22:46;6.20;99.90
25918;DHT22;13899;51.174;4.456;2023-03-15T04:25:19;6.00;99.90
25918;DHT22;13899;51.174;4.456;2023-03-15T04:27:44;6.00;99.90
25918;DHT22;13899;51.174;4.456;2023-03-15T04:30:11;6.20;99.90
25918;DHT22;13899;51.174;4.456;2023-03-15T04:32:37;6.30;99.90
25918;DHT22;13899;51.174;4.456;2023-03-15T04:35:04;6.30;99.90
25918;DHT22;13899;51.174;4.456;2023-03-15T04:37:30;6.00;99.90
25918;DHT22;13899;51.174;4.456;2023-03-15T04:39:58;6.20;99.90
25918;DHT22;13899;51.174;4.456;2023-03-15T04:42:24;6.40;99.90
25918;DHT22;13899;51.174;4.456;2023-03-15T04:44:54;6.50;99.90
25918;DHT22;13899;51.174;4.456;2023-03-15T04:47:19;6.60;99.90
25918;DHT22;13899;51.174;4.456;2023-03-15T04:49:47;6.70;99.90
25918;DHT22;13899;51.174;4.456;2023-03-15T04:52:12;6.70;99.90
25918;DHT22;13899;51.174;4.456;2023-03-15T04:54:40;6.60;99.90
25918;DHT22;13899;51.174;4.456;2023-03-15T04:57:05;6.60;99.90
25918;DHT22;13899;51.174;4.456;2023-03-15T04:59:31;6.40;99.90
25918;DHT22;13899;51.174;4.456;2023-03-15T05:02:01;6.10;99.90
25918;DHT22;13899;51.174;4.456;2023-03-15T05:04:27;6.30;99.90
25918;DHT22;13899;51.174;4.456;2023-03-15T05:06:53;6.30;99.90
25918;DHT22;13899;51.174;4.456;2023-03-15T05:09:19;5.80;99.90
25918;DHT22;13899;51.174;4.456;2023-03-15T05:11:46;5.40;99.90
25918;DHT22;13899;51.174;4.456;2023-03-15T05:14:12;5.70;99.90
25918;DHT22;13899;51.174;4.456;2023-03-15T05:16:38;5.80;99.90
25918;DHT22;13899;51.174;4.456;2023-03-15T05:19:04;5.90;99.90
25918;DHT22;13899;51.174;4.456;2023-03-15T05:21:29;5.60;99.90
25918;DHT22;13899;51.174;4.456;2023-03-15T05:23:56;5.70;99.90
25918;DHT22;13899;51.174;4.456;2023-03-15T05:26:22;5.80;99.90
25918;DHT22;13899;51.174;4.456;2023-03-15T05:29:04;5.60;99.90
25918;DHT22;13899;51.174;4.456;2023-03-15T05:31:30;5.40;99.90
25918;DHT22;13899;51.174;4.456;2023-03-15T05:34:02;5.30;99.90
25918;DHT22;13899;51.174;4.456;2023-03-15T05:36:29;4.90;99.90
25918;DHT22;13899;51.174;4.456;2023-03-15T05:38:55;4.30;99.90
25918;DHT22;13899;51.174;4.456;2023-03-15T05:41:21;4.00;99.90
25918;DHT22;13899;51.174;4.456;2023-03-15T05:43:47;3.80;99.90
25918;DHT22;13899;51.174;4.456;2023-03-15T05:46:12;3.70;99.90
25918;DHT22;13899;51.174;4.456;2023-03-15T05:48:41;3.50;99.90
25918;DHT22;13899;51.174;4.456;2023-03-15T05:51:09;3.40;99.90
25918;DHT22;13899;51.174;4.456;2023-03-15T05:53:34;3.40;99.90
25918;DHT22;13899;51.174;4.456;2023-03-15T05:56:04;3.30;99.90
25918;DHT22;13899;51.174;4.456;2023-03-15T05:58:36;3.30;99.90
25918;DHT22;13899;51.174;4.456;2023-03-15T06:01:10;3.40;99.90
25918;DHT22;13899;51.174;4.456;2023-03-15T06:03:37;3.80;99.90
25918;DHT22;13899;51.174;4.456;2023-03-15T06:06:13;4.40;99.90
25918;DHT22;13899;51.174;4.456;2023-03-15T06:08:48;4.60;99.90
25918;DHT22;13899;51.174;4.456;2023-03-15T06:11:37;4.70;99.90
25918;DHT22;13899;51.174;4.456;2023-03-15T06:14:08;4.20;99.90
25918;DHT22;13899;51.174;4.456;2023-03-15T06:16:34;4.60;99.90
25918;DHT22;13899;51.174;4.456;2023-03-15T06:18:59;4.70;99.90
25918;DHT22;13899;51.174;4.456;2023-03-15T06:21:25;4.90;99.90
25918;DHT22;13899;51.174;4.456;2023-03-15T06:23:51;4.90;99.90
25918;DHT22;13899;51.174;4.456;2023-03-15T06:26:18;5.30;99.90
25918;DHT22;13899;51.174;4.456;2023-03-15T06:28:44;5.40;99.90
25918;DHT22;13899;51.174;4.456;2023-03-15T06:31:11;5.70;99.90
25918;DHT22;13899;51.174;4.456;2023-03-15T06:33:38;5.20;99.90
25918;DHT22;13899;51.174;4.456;2023-03-15T06:36:04;5.20;99.90
25918;DHT22;13899;51.174;4.456;2023-03-15T06:38:31;4.70;99.90
25918;DHT22;13899;51.174;4.456;2023-03-15T06:40:57;4.60;99.90
25918;DHT22;13899;51.174;4.456;2023-03-15T06:43:26;5.00;99.90
25918;DHT22;13899;51.174;4.456;2023-03-15T06:45:52;5.50;99.90
25918;DHT22;13899;51.174;4.456;2023-03-15T06:48:20;5.70;99.90
25918;DHT22;13899;51.174;4.456;2023-03-15T06:50:46;5.90;99.90
25918;DHT22;13899;51.174;4.456;2023-03-15T06:53:12;5.70;99.90
25918;DHT22;13899;51.174;4.456;2023-03-15T06:55:37;5.60;99.90
25918;DHT22;13899;51.174;4.456;2023-03-15T06:58:03;5.90;99.90
25918;DHT22;13899;51.174;4.456;2023-03-15T07:00:29;6.20;99.90
25918;DHT22;13899;51.174;4.456;2023-03-15T07:02:55;6.10;99.90
25918;DHT22;13899;51.174;4.456;2023-03-15T07:05:21;5.70;99.90
25918;DHT22;13899;51.174;4.456;2023-03-15T07:07:47;5.00;99.90
25918;DHT22;13899;51.174;4.456;2023-03-15T07:10:36;4.50;99.90
25918;DHT22;13899;51.174;4.456;2023-03-15T07:13:33;5.00;99.90
25918;DHT22;13899;51.174;4.456;2023-03-15T07:16:00;5.60;99.90
25918;DHT22;13899;51.174;4.456;2023-03-15T07:18:26;5.90;99.90
25918;DHT22;13899;51.174;4.456;2023-03-15T07:20:58;6.00;99.90
25918;DHT22;13899;51.174;4.456;2023-03-15T07:23:24;6.40;99.90
25918;DHT22;13899;51.174;4.456;2023-03-15T07:25:52;6.30;99.90
25918;DHT22;13899;51.174;4.456;2023-03-15T07:28:19;6.10;99.90
25918;DHT22;13899;51.174;4.456;2023-03-15T07:33:19;6.80;99.90
25918;DHT22;13899;51.174;4.456;2023-03-15T07:35:47;6.90;99.90
25918;DHT22;13899;51.174;4.456;2023-03-15T07:38:13;6.70;99.90
25918;DHT22;13899;51.174;4.456;2023-03-15T07:40:39;6.10;99.90
25918;DHT22;13899;51.174;4.456;2023-03-15T07:43:06;5.60;99.90
25918;DHT22;13899;51.174;4.456;2023-03-15T07:45:31;5.70;99.90
25918;DHT22;13899;51.174;4.456;2023-03-15T07:47:58;5.70;99.90
25918;DHT22;13899;51.174;4.456;2023-03-15T07:50:25;6.00;99.90
25918;DHT22;13899;51.174;4.456;2023-03-15T07:52:51;6.10;99.90
25918;DHT22;13899;51.174;4.456;2023-03-15T07:55:17;5.90;99.90
25918;DHT22;13899;51.174;4.456;2023-03-15T07:57:43;5.90;99.90
25918;DHT22;13899;51.174;4.456;2023-03-15T08:00:10;5.70;99.90
25918;DHT22;13899;51.174;4.456;2023-03-15T08:02:38;5.70;99.90
25918;DHT22;13899;51.174;4.456;2023-03-15T08:05:06;5.70;99.90
25918;DHT22;13899;51.174;4.456;2023-03-15T08:07:31;5.50;99.90
25918;DHT22;13899;51.174;4.456;2023-03-15T08:09:57;5.40;99.90
25918;DHT22;13899;51.174;4.456;2023-03-15T08:12:23;5.70;99.90
25918;DHT22;13899;51.174;4.456;2023-03-15T08:14:49;5.60;99.90
25918;DHT22;13899;51.174;4.456;2023-03-15T08:17:17;5.80;99.90
25918;DHT22;13899;51.174;4.456;2023-03-15T08:19:43;6.10;99.90
25918;DHT22;13899;51.174;4.456;2023-03-15T08:22:09;5.60;99.90
25918;DHT22;13899;51.174;4.456;2023-03-15T08:24:36;6.00;99.90
25918;DHT22;13899;51.174;4.456;2023-03-15T08:27:07;6.60;99.90
25918;DHT22;13899;51.174;4.456;2023-03-15T08:29:34;6.90;99.90
25918;DHT22;13899;51.174;4.456;2023-03-15T08:31:59;6.90;99.90
25918;DHT22;13899;51.174;4.456;2023-03-15T08:34:25;7.10;99.90
25918;DHT22;13899;51.174;4.456;2023-03-15T08:36:51;7.30;99.90
25918;DHT22;13899;51.174;4.456;2023-03-15T08:39:17;7.60;99.90
25918;DHT22;13899;51.174;4.456;2023-03-15T08:41:42;6.90;99.90
25918;DHT22;13899;51.174;4.456;2023-03-15T08:44:09;7.00;99.90
25918;DHT22;13899;51.174;4.456;2023-03-15T08:46:36;7.10;99.90
25918;DHT22;13899;51.174;4.456;2023-03-15T08:49:02;6.90;99.90
25918;DHT22;13899;51.174;4.456;2023-03-15T08:51:28;7.30;99.90
25918;DHT22;13899;51.174;4.456;2023-03-15T08:53:55;7.40;99.90
25918;DHT22;13899;51.174;4.456;2023-03-15T08:56:21;7.30;99.90
25918;DHT22;13899;51.174;4.456;2023-03-15T08:58:47;7.10;99.90
25918;DHT22;13899;51.174;4.456;2023-03-15T09:01:14;6.80;99.90
25918;DHT22;13899;51.174;4.456;2023-03-15T09:03:43;6.80;99.90
25918;DHT22;13899;51.174;4.456;2023-03-15T09:06:08;6.70;99.90
25918;DHT22;13899;51.174;4.456;2023-03-15T09:08:35;6.20;99.90
25918;DHT22;13899;51.174;4.456;2023-03-15T09:11:00;6.30;99.90
25918;DHT22;13899;51.174;4.456;2023-03-15T09:13:28;6.10;99.90
25918;DHT22;13899;51.174;4.456;2023-03-15T09:15:55;6.40;99.90
25918;DHT22;13899;51.174;4.456;2023-03-15T09:18:22;6.90;99.90
25918;DHT22;13899;51.174;4.456;2023-03-15T09:20:48;7.30;99.90
25918;DHT22;13899;51.174;4.456;2023-03-15T09:23:14;7.10;99.90
25918;DHT22;13899;51.174;4.456;2023-03-15T09:25:40;7.00;99.90
25918;DHT22;13899;51.174;4.456;2023-03-15T09:28:08;6.90;99.90
25918;DHT22;13899;51.174;4.456;2023-03-15T09:30:35;7.50;99.90
25918;DHT22;13899;51.174;4.456;2023-03-15T09:33:02;8.40;99.90
25918;DHT22;13899;51.174;4.456;2023-03-15T09:35:27;8.50;99.90
25918;DHT22;13899;51.174;4.456;2023-03-15T09:37:54;8.10;99.90
25918;DHT22;13899;51.174;4.456;2023-03-15T09:40:29;8.10;99.90
25918;DHT22;13899;51.174;4.456;2023-03-15T09:43:04;7.40;99.90
25918;DHT22;13899;51.174;4.456;2023-03-15T09:50:55;8.10;99.90
25918;DHT22;13899;51.174;4.456;2023-03-15T09:53:24;8.80;99.90
25918;DHT22;13899;51.174;4.456;2023-03-15T09:55:52;9.20;99.90
25918;DHT22;13899;51.174;4.456;2023-03-15T09:58:24;8.80;99.90
25918;DHT22;13899;51.174;4.456;2023-03-15T10:01:01;9.70;99.90
25918;DHT22;13899;51.174;4.456;2023-03-15T10:03:50;11.10;99.90
25918;DHT22;13899;51.174;4.456;2023-03-15T10:08:41;13.90;99.90
25918;DHT22;13899;51.174;4.456;2023-03-15T10:11:20;13.00;99.90
25918;DHT22;13899;51.174;4.456;2023-03-15T10:16:47;13.20;99.90
25918;DHT22;13899;51.174;4.456;2023-03-15T10:19:49;13.50;99.90
25918;DHT22;13899;51.174;4.456;2023-03-15T10:22:46;16.10;99.90
25918;DHT22;13899;51.174;4.456;2023-03-15T10:25:28;13.60;99.90
25918;DHT22;13899;51.174;4.456;2023-03-15T10:30:34;15.60;99.90
25918;DHT22;13899;51.174;4.456;2023-03-15T10:35:47;16.20;99.90
25918;DHT22;13899;51.174;4.456;2023-03-15T10:38:18;16.20;99.90
25918;DHT22;13899;51.174;4.456;2023-03-15T10:40:45;17.30;99.90
25918;DHT22;13899;51.174;4.456;2023-03-15T10:43:32;19.30;98.50
25918;DHT22;13899;51.174;4.456;2023-03-15T10:46:22;17.30;99.10
25918;DHT22;13899;51.174;4.456;2023-03-15T10:49:08;17.30;97.80
25918;DHT22;13899;51.174;4.456;2023-03-15T10:51:43;15.60;99.90
25918;DHT22;13899;51.174;4.456;2023-03-15T10:54:19;15.00;99.90
25918;DHT22;13899;51.174;4.456;2023-03-15T10:56:58;14.80;99.90
25918;DHT22;13899;51.174;4.456;2023-03-15T10:59:27;15.60;99.90
25918;DHT22;13899;51.174;4.456;2023-03-15T11:02:14;17.50;95.50
25918;DHT22;13899;51.174;4.456;2023-03-15T11:04:49;18.80;98.40
25918;DHT22;13899;51.174;4.456;2023-03-15T11:07:23;20.90;91.50
25918;DHT22;13899;51.174;4.456;2023-03-15T11:09:57;20.10;91.60
25918;DHT22;13899;51.174;4.456;2023-03-15T11:12:25;19.70;91.40
25918;DHT22;13899;51.174;4.456;2023-03-15T11:14:57;17.20;93.80
25918;DHT22;13899;51.174;4.456;2023-03-15T11:17:26;15.40;95.80
25918;DHT22;13899;51.174;4.456;2023-03-15T11:19:56;12.70;99.90
25918;DHT22;13899;51.174;4.456;2023-03-15T11:22:23;12.70;99.90
25918;DHT22;13899;51.174;4.456;2023-03-15T11:24:49;12.90;99.90
25918;DHT22;13899;51.174;4.456;2023-03-15T11:27:18;13.30;99.90
25918;DHT22;13899;51.174;4.456;2023-03-15T11:29:51;13.30;99.90
25918;DHT22;13899;51.174;4.456;2023-03-15T11:32:22;12.80;99.90
25918;DHT22;13899;51.174;4.456;2023-03-15T11:35:12;12.30;99.90
25918;DHT22;13899;51.174;4.456;2023-03-15T11:37:51;12.50;99.90
25918;DHT22;13899;51.174;4.456;2023-03-15T11:40:27;11.70;99.90
25918;DHT22;13899;51.174;4.456;2023-03-15T11:43:00;11.40;99.90
25918;DHT22;13899;51.174;4.456;2023-03-15T11:45:38;11.80;99.90
25918;DHT22;13899;51.174;4.456;2023-03-15T11:48:17;13.30;99.90
25918;DHT22;13899;51.174;4.456;2023-03-15T11:50:45;14.40;99.90
25918;DHT22;13899;51.174;4.456;2023-03-15T11:53:13;15.00;99.90
25918;DHT22;13899;51.174;4.456;2023-03-15T11:55:40;16.00;99.90
25918;DHT22;13899;51.174;4.456;2023-03-15T11:58:33;17.30;98.10
25918;DHT22;13899;51.174;4.456;2023-03-15T12:01:04;18.30;94.20
25918;DHT22;13899;51.174;4.456;2023-03-15T12:08:51;20.20;81.40
25918;DHT22;13899;51.174;4.456;2023-03-15T12:16:31;22.10;63.60
25918;DHT22;13899;51.174;4.456;2023-03-15T12:19:13;19.20;66.70
25918;DHT22;13899;51.174;4.456;2023-03-15T12:21:43;18.40;68.10
25918;DHT22;13899;51.174;4.456;2023-03-15T12:24:20;17.10;75.60
25918;DHT22;13899;51.174;4.456;2023-03-15T12:27:15;18.60;74.50
25918;DHT22;13899;51.174;4.456;2023-03-15T12:29:44;18.40;71.10
25918;DHT22;13899;51.174;4.456;2023-03-15T12:32:15;16.50;77.20
25918;DHT22;13899;51.174;4.456;2023-03-15T12:34:54;15.10;84.90
25918;DHT22;13899;51.174;4.456;2023-03-15T12:37:30;16.30;87.20
25918;DHT22;13899;51.174;4.456;2023-03-15T12:53:33;15.90;91.20
25918;DHT22;13899;51.174;4.456;2023-03-15T12:56:28;17.20;90.10
25918;DHT22;13899;51.174;4.456;2023-03-15T12:59:21;17.70;77.90
25918;DHT22;13899;51.174;4.456;2023-03-15T13:01:50;14.10;85.60
25918;DHT22;13899;51.174;4.456;2023-03-15T13:04:16;14.60;89.70
25918;DHT22;13899;51.174;4.456;2023-03-15T13:07:03;16.40;86.40
25918;DHT22;13899;51.174;4.456;2023-03-15T13:10:14;16.30;85.10
25918;DHT22;13899;51.174;4.456;2023-03-15T13:12:47;15.10;87.60
25918;DHT22;13899;51.174;4.456;2023-03-15T13:15:18;14.30;90.10
25918;DHT22;13899;51.174;4.456;2023-03-15T13:17:50;14.40;89.60
25918;DHT22;13899;51.174;4.456;2023-03-15T13:20:34;13.00;92.00
25918;DHT22;13899;51.174;4.456;2023-03-15T13:23:21;13.10;93.10
25918;DHT22;13899;51.174;4.456;2023-03-15T13:26:27;12.90;92.20
25918;DHT22;13899;51.174;4.456;2023-03-15T13:29:13;13.50;93.50
25918;DHT22;13899;51.174;4.456;2023-03-15T13:31:46;14.30;90.00
25918;DHT22;13899;51.174;4.456;2023-03-15T13:34:23;15.60;90.30
25918;DHT22;13899;51.174;4.456;2023-03-15T13:36:58;15.60;88.50
25918;DHT22;13899;51.174;4.456;2023-03-15T13:39:33;14.30;90.50
25918;DHT22;13899;51.174;4.456;2023-03-15T13:44:27;14.20;92.50
25918;DHT22;13899;51.174;4.456;2023-03-15T13:46:54;14.30;90.10
25918;DHT22;13899;51.174;4.456;2023-03-15T13:49:20;16.00;91.60
25918;DHT22;13899;51.174;4.456;2023-03-15T13:51:47;15.90;85.90
25918;DHT22;13899;51.174;4.456;2023-03-15T13:54:24;14.70;86.50
25918;DHT22;13899;51.174;4.456;2023-03-15T13:57:04;15.50;90.30
25918;DHT22;13899;51.174;4.456;2023-03-15T14:02:23;15.90;84.80
25918;DHT22;13899;51.174;4.456;2023-03-15T14:04:58;14.60;90.00
25918;DHT22;13899;51.174;4.456;2023-03-15T14:07:35;15.20;87.90
25918;DHT22;13899;51.174;4.456;2023-03-15T14:10:29;17.30;88.50
25918;DHT22;13899;51.174;4.456;2023-03-15T14:12:57;18.90;78.80
25918;DHT22;13899;51.174;4.456;2023-03-15T14:15:35;20.70;76.70
25918;DHT22;13899;51.174;4.456;2023-03-15T14:18:03;19.40;72.30
25918;DHT22;13899;51.174;4.456;2023-03-15T14:20:34;19.40;69.70
25918;DHT22;13899;51.174;4.456;2023-03-15T14:23:03;19.20;71.30
25918;DHT22;13899;51.174;4.456;2023-03-15T14:25:34;18.50;68.10
25918;DHT22;13899;51.174;4.456;2023-03-15T14:28:01;18.20;69.90
25918;DHT22;13899;51.174;4.456;2023-03-15T14:30:28;18.30;67.60
25918;DHT22;13899;51.174;4.456;2023-03-15T14:32:58;18.40;71.70
25918;DHT22;13899;51.174;4.456;2023-03-15T14:35:32;18.10;70.10
25918;DHT22;13899;51.174;4.456;2023-03-15T14:38:24;18.30;67.80
25918;DHT22;13899;51.174;4.456;2023-03-15T14:40:52;17.10;69.60
25918;DHT22;13899;51.174;4.456;2023-03-15T14:43:18;16.30;69.70
25918;DHT22;13899;51.174;4.456;2023-03-15T14:45:45;17.10;69.80
25918;DHT22;13899;51.174;4.456;2023-03-15T14:48:28;18.40;66.10
25918;DHT22;13899;51.174;4.456;2023-03-15T14:50:54;16.60;67.80
25918;DHT22;13899;51.174;4.456;2023-03-15T14:53:23;14.60;71.10
25918;DHT22;13899;51.174;4.456;2023-03-15T14:55:49;13.90;75.50
25918;DHT22;13899;51.174;4.456;2023-03-15T14:58:17;13.80;79.00
25918;DHT22;13899;51.174;4.456;2023-03-15T15:00:45;15.20;78.10
25918;DHT22;13899;51.174;4.456;2023-03-15T15:06:02;15.90;73.70
25918;DHT22;13899;51.174;4.456;2023-03-15T15:08:30;16.60;74.00
25918;DHT22;13899;51.174;4.456;2023-03-15T15:10:56;17.80;68.50
25918;DHT22;13899;51.174;4.456;2023-03-15T15:13:27;18.20;66.80
25918;DHT22;13899;51.174;4.456;2023-03-15T15:15:53;18.40;64.90
25918;DHT22;13899;51.174;4.456;2023-03-15T15:18:19;17.10;67.70
25918;DHT22;13899;51.174;4.456;2023-03-15T15:20:45;16.60;67.40
25918;DHT22;13899;51.174;4.456;2023-03-15T15:25:49;16.30;70.20
25918;DHT22;13899;51.174;4.456;2023-03-15T15:28:17;13.60;72.00
25918;DHT22;13899;51.174;4.456;2023-03-15T15:30:42;12.90;77.40
25918;DHT22;13899;51.174;4.456;2023-03-15T15:33:08;11.60;82.90
25918;DHT22;13899;51.174;4.456;2023-03-15T15:35:34;11.20;87.80
25918;DHT22;13899;51.174;4.456;2023-03-15T15:37:59;11.40;90.60
25918;DHT22;13899;51.174;4.456;2023-03-15T15:40:31;11.30;92.40
25918;DHT22;13899;51.174;4.456;2023-03-15T15:42:58;11.30;92.20
25918;DHT22;13899;51.174;4.456;2023-03-15T15:45:25;11.40;91.80
25918;DHT22;13899;51.174;4.456;2023-03-15T15:47:51;11.60;92.90
25918;DHT22;13899;51.174;4.456;2023-03-15T15:50:18;11.80;92.50
25918;DHT22;13899;51.174;4.456;2023-03-15T15:52:49;12.20;92.20
25918;DHT22;13899;51.174;4.456;2023-03-15T15:55:35;13.40;90.80
25918;DHT22;13899;51.174;4.456;2023-03-15T15:58:04;12.30;90.40
25918;DHT22;13899;51.174;4.456;2023-03-15T16:00:30;12.90;90.80
25918;DHT22;13899;51.174;4.456;2023-03-15T16:02:57;13.40;88.40
25918;DHT22;13899;51.174;4.456;2023-03-15T16:05:24;12.70;87.50
25918;DHT22;13899;51.174;4.456;2023-03-15T16:07:51;11.70;90.70
25918;DHT22;13899;51.174;4.456;2023-03-15T16:10:20;11.90;91.70
25918;DHT22;13899;51.174;4.456;2023-03-15T16:12:47;12.30;90.70
25918;DHT22;13899;51.174;4.456;2023-03-15T16:15:14;12.30;89.40
25918;DHT22;13899;51.174;4.456;2023-03-15T16:17:40;12.00;89.70
25918;DHT22;13899;51.174;4.456;2023-03-15T16:20:07;12.20;88.70
25918;DHT22;13899;51.174;4.456;2023-03-15T16:22:35;12.00;89.90
25918;DHT22;13899;51.174;4.456;2023-03-15T16:25:04;11.70;90.90
25918;DHT22;13899;51.174;4.456;2023-03-15T16:27:32;12.20;90.90
25918;DHT22;13899;51.174;4.456;2023-03-15T16:29:58;12.00;91.90
25918;DHT22;13899;51.174;4.456;2023-03-15T16:32:25;12.00;92.00
25918;DHT22;13899;51.174;4.456;2023-03-15T16:34:51;11.90;91.80
25918;DHT22;13899;51.174;4.456;2023-03-15T16:37:23;11.90;92.90
25918;DHT22;13899;51.174;4.456;2023-03-15T16:39:52;11.50;92.90
25918;DHT22;13899;51.174;4.456;2023-03-15T16:42:20;11.70;93.90
25918;DHT22;13899;51.174;4.456;2023-03-15T16:44:48;11.30;94.50
25918;DHT22;13899;51.174;4.456;2023-03-15T16:47:14;10.80;96.70
25918;DHT22;13899;51.174;4.456;2023-03-15T16:49:39;10.70;97.90
25918;DHT22;13899;51.174;4.456;2023-03-15T16:52:06;10.70;98.70
25918;DHT22;13899;51.174;4.456;2023-03-15T16:54:34;10.60;99.20
25918;DHT22;13899;51.174;4.456;2023-03-15T16:57:00;10.50;99.90
25918;DHT22;13899;51.174;4.456;2023-03-15T16:59:26;10.80;99.90